Portada
METAR-TAF:

METAR-TAF

Aeropuertos :

Tiaret, Argelia

latitud: 35-15N, longitud: 001-26E, altitud: 1127 m

Observación

El informe se hizo hace 53 minutos, a las 13:00 UTC
Viento 6 kt del noroeste
Temperatura 22°C
Humedad 33%
Presión 1016 hPa
Visibilidad 10 km o más
Cielo nuboso a una altura de 2300 ft

METAR: DAOB 271300Z 31006KT 9999 BKN023 22/05 Q1016

Hora: 14:53 (13:53 UTC)

Pronóstico

El informe se hizo hace 2 horas y 53 minutos, a las 11:00 UTC
Pronóstico válido del 27 a las 12 UTC al 28 a las 12 UTC
Viento 10 kt del noroeste
Visibilidad 10 km o más
Nubes dispersas a una altura de 2300 ft
Evolucionando progresivamente
del 27 a las 20 UTC al 27 a las 23 UTC
Viento 2 kt con dirección variable
Evolucionando progresivamente
del 28 a las 09 UTC al 28 a las 12 UTC
Viento 10 kt del oeste-suroeste

TAF: DAOB 271100Z 2712/2812 32010KT 9999 SCT023 BECMG 2720/2723 VRB02KT BECMG 2809/2812 24010KT

Observaciones y pronósticos meteorológicos de más de 4000 aeropuertos (mensajes METAR y TAF).

Los puntos amarillos y rojos representan las estaciones disponibles.

Ponga el ratón en el punto deseado para ver el nombre de la estación.

Haga clic para ver las observaciones y los pronósticos meteorológicos.

Para cambiar el mapa : haga clic en los botones verdes con una cruz de color negro para hacer un zoom, en el botón verde con un guión para alejar o en las flechas verdes para mapas adyacentes.


METAR-TAF: